Главная страница
METAR-TAF:

METAR-TAF

Аэропорты :

Эстерсунд-Frösön, Швеция

широта: 63-11N, долгота: 014-30E, высота над уровнем моря: 376 м

Текущие метеонаблюдения

Эта сводка был подготовлена 15 минут назад, в 10:50 UTC
Ветер 6 Узел от западный
Температура 0°C
Влажность 64%
Давление 1014 hPa
Видимость 10 км и более
Отдельные облака на высоте 4900 фута

METAR: ESNZ 261050Z 27006KT 9999 SCT049 M00/M06 Q1014

Время: 12:05 (11:05 UTC)

Прогноз

Эта сводка был подготовлена 2 часа и 35 минут назад, в 08:30 UTC
Прогноз действительный с 26-го 09 UTC до 26-го 18 UTC
Ветер 8 Узел от северно-северо-западный
Видимость 10 км и более
Отдельные облака на высоте 4000 фута
изменения
С 26-го 16 UTC до 26-го 18 UTC
Ветер 10 Узел от южный

TAF: ESNZ 260830Z 2609/2618 33008KT 9999 SCT040 BECMG 2616/2618 17010KT

Метеонаблюдения и прогнозы для более 4000 аэропортов (сводки METAR и TAF).

Имеющиеся станции представлены на карте желтыми и красными точками.

Чтобы увидеть название станции, наведите на нее мышь.

Затем щелкните, чтобы увидеть метеонаблюдения и метеопрогнозы.

Управление картой: чтобы увеличить масштаб, щелкните зеленые кнопки с черным крестиком; чтобы уменьшить масштаб, щелкните зеленую кнопку с тире; для просмотра соседних карт щелкайте зеленые стрелки.


METAR-TAF: